sensor_id;sensor_type;location;lat;lon;timestamp;pressure;altitude;pressure_sealevel;temperature;humidity
71384;BME280;67558;52.166;5.004;2023-11-18T00:00:24;102417.72;;;10.77;62.29
71384;BME280;67558;52.166;5.004;2023-11-18T00:02:50;102413.19;;;10.78;62.23
71384;BME280;67558;52.166;5.004;2023-11-18T00:05:15;102411.44;;;10.83;62.34
71384;BME280;67558;52.166;5.004;2023-11-18T00:07:41;102410.75;;;10.88;62.32
71384;BME280;67558;52.166;5.004;2023-11-18T00:10:07;102409.28;;;10.92;62.27
71384;BME280;67558;52.166;5.004;2023-11-18T00:12:34;102411.50;;;10.95;62.36
71384;BME280;67558;52.166;5.004;2023-11-18T00:15:03;102401.13;;;10.99;62.26
71384;BME280;67558;52.166;5.004;2023-11-18T00:17:31;102405.00;;;11.03;62.25
71384;BME280;67558;52.166;5.004;2023-11-18T00:19:57;102407.44;;;11.04;62.41
71384;BME280;67558;52.166;5.004;2023-11-18T00:22:22;102415.25;;;11.06;62.29
71384;BME280;67558;52.166;5.004;2023-11-18T00:24:48;102404.88;;;11.10;62.35
71384;BME280;67558;52.166;5.004;2023-11-18T00:27:13;102406.53;;;11.11;62.48
71384;BME280;67558;52.166;5.004;2023-11-18T00:29:40;102402.34;;;11.15;62.26
71384;BME280;67558;52.166;5.004;2023-11-18T00:32:06;102407.25;;;11.18;62.39
71384;BME280;67558;52.166;5.004;2023-11-18T00:34:32;102402.69;;;11.18;62.31
71384;BME280;67558;52.166;5.004;2023-11-18T00:36:58;102399.19;;;11.18;62.01
71384;BME280;67558;52.166;5.004;2023-11-18T00:39:24;102406.22;;;11.19;61.82
71384;BME280;67558;52.166;5.004;2023-11-18T00:41:49;102409.09;;;11.17;61.79
71384;BME280;67558;52.166;5.004;2023-11-18T00:44:15;102407.47;;;11.16;61.83
71384;BME280;67558;52.166;5.004;2023-11-18T00:46:40;102415.97;;;11.13;61.71
71384;BME280;67558;52.166;5.004;2023-11-18T00:49:05;102404.66;;;11.11;61.69
71384;BME280;67558;52.166;5.004;2023-11-18T00:51:31;102404.28;;;11.07;61.86
71384;BME280;67558;52.166;5.004;2023-11-18T00:53:57;102407.81;;;11.08;61.96
71384;BME280;67558;52.166;5.004;2023-11-18T00:56:22;102411.53;;;11.07;61.76
71384;BME280;67558;52.166;5.004;2023-11-18T00:58:48;102417.94;;;11.06;61.81
71384;BME280;67558;52.166;5.004;2023-11-18T01:01:13;102413.28;;;11.01;61.85
71384;BME280;67558;52.166;5.004;2023-11-18T01:03:43;102413.72;;;10.98;61.83
71384;BME280;67558;52.166;5.004;2023-11-18T01:06:09;102409.84;;;10.94;61.82
71384;BME280;67558;52.166;5.004;2023-11-18T01:08:34;102410.66;;;10.95;61.76
71384;BME280;67558;52.166;5.004;2023-11-18T01:11:00;102409.28;;;10.92;61.78
71384;BME280;67558;52.166;5.004;2023-11-18T01:13:25;102406.00;;;10.90;61.63
71384;BME280;67558;52.166;5.004;2023-11-18T01:15:52;102414.88;;;10.91;61.85
71384;BME280;67558;52.166;5.004;2023-11-18T01:18:17;102423.13;;;10.89;61.77
71384;BME280;67558;52.166;5.004;2023-11-18T01:20:43;102418.78;;;10.88;61.71
71384;BME280;67558;52.166;5.004;2023-11-18T01:23:08;102416.59;;;10.85;61.68
71384;BME280;67558;52.166;5.004;2023-11-18T01:25:33;102406.91;;;10.84;61.84
71384;BME280;67558;52.166;5.004;2023-11-18T01:28:00;102405.50;;;10.81;61.95
71384;BME280;67558;52.166;5.004;2023-11-18T01:30:25;102417.63;;;10.84;62.00
71384;BME280;67558;52.166;5.004;2023-11-18T01:32:52;102417.88;;;10.82;62.02
71384;BME280;67558;52.166;5.004;2023-11-18T01:35:17;102414.59;;;10.80;62.11
71384;BME280;67558;52.166;5.004;2023-11-18T01:37:43;102419.72;;;10.82;62.08
71384;BME280;67558;52.166;5.004;2023-11-18T01:40:09;102421.34;;;10.83;62.33
71384;BME280;67558;52.166;5.004;2023-11-18T01:42:38;102433.13;;;10.82;62.14
71384;BME280;67558;52.166;5.004;2023-11-18T01:45:04;102411.75;;;10.75;62.36
71384;BME280;67558;52.166;5.004;2023-11-18T01:47:31;102416.47;;;10.80;62.37
71384;BME280;67558;52.166;5.004;2023-11-18T01:49:59;102411.09;;;10.80;62.48
71384;BME280;67558;52.166;5.004;2023-11-18T01:52:26;102416.47;;;10.80;62.42
71384;BME280;67558;52.166;5.004;2023-11-18T01:54:53;102417.28;;;10.80;62.39
71384;BME280;67558;52.166;5.004;2023-11-18T01:57:20;102424.50;;;10.80;62.55
71384;BME280;67558;52.166;5.004;2023-11-18T01:59:46;102419.94;;;10.80;62.33
71384;BME280;67558;52.166;5.004;2023-11-18T02:02:11;102423.66;;;10.79;62.35
71384;BME280;67558;52.166;5.004;2023-11-18T02:04:38;102430.66;;;10.80;62.70
71384;BME280;67558;52.166;5.004;2023-11-18T02:07:04;102437.63;;;10.81;62.45
71384;BME280;67558;52.166;5.004;2023-11-18T02:09:35;102431.00;;;10.84;62.33
71384;BME280;67558;52.166;5.004;2023-11-18T02:14:36;102431.38;;;10.88;62.45
71384;BME280;67558;52.166;5.004;2023-11-18T02:17:05;102434.06;;;10.88;62.37
71384;BME280;67558;52.166;5.004;2023-11-18T02:19:31;102430.09;;;10.90;62.18
71384;BME280;67558;52.166;5.004;2023-11-18T02:21:59;102430.09;;;10.90;62.29
71384;BME280;67558;52.166;5.004;2023-11-18T02:24:29;102425.00;;;10.89;62.25
71384;BME280;67558;52.166;5.004;2023-11-18T02:27:06;102434.66;;;10.90;62.40
71384;BME280;67558;52.166;5.004;2023-11-18T02:29:37;102421.47;;;10.88;62.34
71384;BME280;67558;52.166;5.004;2023-11-18T02:32:11;102417.19;;;10.87;62.27
71384;BME280;67558;52.166;5.004;2023-11-18T02:34:45;102420.06;;;10.85;62.33
71384;BME280;67558;52.166;5.004;2023-11-18T02:37:13;102417.75;;;10.89;62.44
71384;BME280;67558;52.166;5.004;2023-11-18T02:39:43;102409.59;;;10.84;62.32
71384;BME280;67558;52.166;5.004;2023-11-18T02:42:12;102407.50;;;10.86;62.30
71384;BME280;67558;52.166;5.004;2023-11-18T02:44:38;102399.47;;;10.86;62.13
71384;BME280;67558;52.166;5.004;2023-11-18T02:47:04;102390.28;;;10.82;62.62
71384;BME280;67558;52.166;5.004;2023-11-18T02:49:34;102401.13;;;10.87;62.36
71384;BME280;67558;52.166;5.004;2023-11-18T02:52:00;102388.53;;;10.88;62.25
71384;BME280;67558;52.166;5.004;2023-11-18T02:54:25;102387.72;;;10.87;61.80
71384;BME280;67558;52.166;5.004;2023-11-18T02:56:51;102381.56;;;10.86;62.11
71384;BME280;67558;52.166;5.004;2023-11-18T02:59:16;102392.28;;;10.86;62.21
71384;BME280;67558;52.166;5.004;2023-11-18T03:01:42;102387.72;;;10.87;62.26
71384;BME280;67558;52.166;5.004;2023-11-18T03:04:07;102387.72;;;10.87;62.18
71384;BME280;67558;52.166;5.004;2023-11-18T03:06:35;102383.66;;;10.84;62.40
71384;BME280;67558;52.166;5.004;2023-11-18T03:09:01;102377.47;;;10.84;62.26
71384;BME280;67558;52.166;5.004;2023-11-18T03:11:27;102382.81;;;10.84;62.29
71384;BME280;67558;52.166;5.004;2023-11-18T03:13:56;102390.28;;;10.82;62.35
71384;BME280;67558;52.166;5.004;2023-11-18T03:16:22;102386.06;;;10.86;62.05
71384;BME280;67558;52.166;5.004;2023-11-18T03:18:47;102386.06;;;10.86;62.33
71384;BME280;67558;52.166;5.004;2023-11-18T03:21:13;102375.38;;;10.86;62.38
71384;BME280;67558;52.166;5.004;2023-11-18T03:23:39;102378.63;;;10.88;62.29
71384;BME280;67558;52.166;5.004;2023-11-18T03:26:09;102380.50;;;10.88;62.38
71384;BME280;67558;52.166;5.004;2023-11-18T03:28:35;102373.28;;;10.88;62.33
71384;BME280;67558;52.166;5.004;2023-11-18T03:31:02;102360.97;;;10.87;62.38
71384;BME280;67558;52.166;5.004;2023-11-18T03:33:29;102354.22;;;10.84;62.33
71384;BME280;67558;52.166;5.004;2023-11-18T03:35:54;102358.88;;;10.89;62.44
71384;BME280;67558;52.166;5.004;2023-11-18T03:38:21;102348.16;;;10.89;62.39
71384;BME280;67558;52.166;5.004;2023-11-18T03:40:46;102346.66;;;10.93;62.39
71384;BME280;67558;52.166;5.004;2023-11-18T03:43:11;102318.72;;;10.89;62.28
71384;BME280;67558;52.166;5.004;2023-11-18T03:45:39;102323.84;;;10.91;62.53
71384;BME280;67558;52.166;5.004;2023-11-18T03:48:05;102319.75;;;10.88;62.50
71384;BME280;67558;52.166;5.004;2023-11-18T03:50:31;102310.69;;;10.89;62.36
71384;BME280;67558;52.166;5.004;2023-11-18T03:52:56;102301.59;;;10.90;62.42
71384;BME280;67558;52.166;5.004;2023-11-18T03:55:22;102295.44;;;10.90;62.47
71384;BME280;67558;52.166;5.004;2023-11-18T03:57:47;102291.34;;;10.87;62.47
71384;BME280;67558;52.166;5.004;2023-11-18T04:00:15;102295.06;;;10.86;62.44
71384;BME280;67558;52.166;5.004;2023-11-18T04:02:41;102282.75;;;10.85;62.40
71384;BME280;67558;52.166;5.004;2023-11-18T04:05:06;102285.41;;;10.85;62.49
71384;BME280;67558;52.166;5.004;2023-11-18T04:07:33;102279.25;;;10.84;62.47
71384;BME280;67558;52.166;5.004;2023-11-18T04:09:58;102287.88;;;10.86;62.48
71384;BME280;67558;52.166;5.004;2023-11-18T04:12:25;102299.59;;;10.85;62.44
71384;BME280;67558;52.166;5.004;2023-11-18T04:14:52;102288.47;;;10.89;62.23
71384;BME280;67558;52.166;5.004;2023-11-18T04:17:17;102273.66;;;10.86;62.46
71384;BME280;67558;52.166;5.004;2023-11-18T04:19:42;102273.66;;;10.86;62.25
71384;BME280;67558;52.166;5.004;2023-11-18T04:22:08;102265.41;;;10.88;62.47
71384;BME280;67558;52.166;5.004;2023-11-18T04:24:34;102260.84;;;10.88;62.27
71384;BME280;67558;52.166;5.004;2023-11-18T04:27:00;102256.91;;;10.91;62.23
71384;BME280;67558;52.166;5.004;2023-11-18T04:29:25;102261.56;;;10.95;62.36
71384;BME280;67558;52.166;5.004;2023-11-18T04:31:51;102258.06;;;10.95;62.24
71384;BME280;67558;52.166;5.004;2023-11-18T04:34:18;102249.81;;;10.96;62.19
71384;BME280;67558;52.166;5.004;2023-11-18T04:36:43;102253.53;;;10.95;62.20
71384;BME280;67558;52.166;5.004;2023-11-18T04:39:09;102251.44;;;10.97;62.22
71384;BME280;67558;52.166;5.004;2023-11-18T04:41:37;102247.34;;;10.95;62.19
71384;BME280;67558;52.166;5.004;2023-11-18T04:44:02;102240.97;;;10.96;62.13
71384;BME280;67558;52.166;5.004;2023-11-18T04:46:28;102244.44;;;10.96;62.08
71384;BME280;67558;52.166;5.004;2023-11-18T04:48:53;102239.31;;;10.95;62.16
71384;BME280;67558;52.166;5.004;2023-11-18T04:51:20;102242.00;;;10.95;62.18
71384;BME280;67558;52.166;5.004;2023-11-18T04:53:46;102246.22;;;10.91;62.13
71384;BME280;67558;52.166;5.004;2023-11-18T04:56:12;102234.06;;;10.88;62.36
71384;BME280;67558;52.166;5.004;2023-11-18T04:58:40;102240.84;;;10.91;62.25
71384;BME280;67558;52.166;5.004;2023-11-18T05:01:05;102245.63;;;10.89;62.25
71384;BME280;67558;52.166;5.004;2023-11-18T05:03:31;102248.53;;;10.87;62.29
71384;BME280;67558;52.166;5.004;2023-11-18T05:05:56;102255.84;;;10.92;62.39
71384;BME280;67558;52.166;5.004;2023-11-18T05:08:22;102258.31;;;10.93;62.32
71384;BME280;67558;52.166;5.004;2023-11-18T05:10:48;102251.09;;;10.94;62.18
71384;BME280;67558;52.166;5.004;2023-11-18T05:13:15;102255.16;;;10.96;61.99
71384;BME280;67558;52.166;5.004;2023-11-18T05:15:44;102248.28;;;11.00;62.02
71384;BME280;67558;52.166;5.004;2023-11-18T05:18:13;102241.91;;;11.01;62.05
71384;BME280;67558;52.166;5.004;2023-11-18T05:20:42;102221.28;;;11.02;62.02
71384;BME280;67558;52.166;5.004;2023-11-18T05:23:08;102218.63;;;11.02;62.01
71384;BME280;67558;52.166;5.004;2023-11-18T05:25:37;102215.72;;;11.03;62.11
71384;BME280;67558;52.166;5.004;2023-11-18T05:28:04;102211.97;;;11.04;61.99
71384;BME280;67558;52.166;5.004;2023-11-18T05:30:30;102210.34;;;11.03;61.91
71384;BME280;67558;52.166;5.004;2023-11-18T05:32:57;102208.47;;;11.04;62.09
71384;BME280;67558;52.166;5.004;2023-11-18T05:35:23;102210.34;;;11.03;61.97
71384;BME280;67558;52.166;5.004;2023-11-18T05:37:53;102199.66;;;11.03;61.81
71384;BME280;67558;52.166;5.004;2023-11-18T05:40:19;102204.53;;;11.06;61.89
71384;BME280;67558;52.166;5.004;2023-11-18T05:42:45;102191.34;;;11.05;61.87
71384;BME280;67558;52.166;5.004;2023-11-18T05:45:13;102187.06;;;11.04;61.93
71384;BME280;67558;52.166;5.004;2023-11-18T05:47:55;102192.16;;;11.05;61.97
71384;BME280;67558;52.166;5.004;2023-11-18T05:50:21;102176.34;;;11.04;61.80
71384;BME280;67558;52.166;5.004;2023-11-18T05:52:47;102179.25;;;11.02;61.89
71384;BME280;67558;52.166;5.004;2023-11-18T05:55:13;102181.94;;;11.02;61.73
71384;BME280;67558;52.166;5.004;2023-11-18T05:57:38;102181.94;;;11.02;61.62
71384;BME280;67558;52.166;5.004;2023-11-18T06:00:04;102185.41;;;11.03;61.82
71384;BME280;67558;52.166;5.004;2023-11-18T06:02:31;102187.88;;;11.04;61.72
71384;BME280;67558;52.166;5.004;2023-11-18T06:04:56;102186.81;;;11.05;61.57
71384;BME280;67558;52.166;5.004;2023-11-18T06:07:22;102178.78;;;11.05;61.67
71384;BME280;67558;52.166;5.004;2023-11-18T06:09:48;102181.22;;;11.07;61.66
71384;BME280;67558;52.166;5.004;2023-11-18T06:12:13;102187.66;;;11.06;61.50
71384;BME280;67558;52.166;5.004;2023-11-18T06:14:39;102176.94;;;11.06;61.61
71384;BME280;67558;52.166;5.004;2023-11-18T06:17:04;102154.56;;;11.00;61.81
71384;BME280;67558;52.166;5.004;2023-11-18T06:19:32;102173.69;;;11.04;61.64
71384;BME280;67558;52.166;5.004;2023-11-18T06:21:58;102165.88;;;11.02;61.55
71384;BME280;67558;52.166;5.004;2023-11-18T06:24:23;102153.06;;;11.04;61.33
71384;BME280;67558;52.166;5.004;2023-11-18T06:26:48;102143.16;;;11.05;61.51
71384;BME280;67558;52.166;5.004;2023-11-18T06:29:15;102149.00;;;11.02;61.55
71384;BME280;67558;52.166;5.004;2023-11-18T06:31:40;102157.75;;;10.97;61.67
71384;BME280;67558;52.166;5.004;2023-11-18T06:34:06;102159.34;;;10.98;61.75
71384;BME280;67558;52.166;5.004;2023-11-18T06:36:32;102162.84;;;10.99;61.57
71384;BME280;67558;52.166;5.004;2023-11-18T06:38:58;102165.19;;;10.95;61.56
71384;BME280;67558;52.166;5.004;2023-11-18T06:41:24;102162.84;;;10.99;61.55
71384;BME280;67558;52.166;5.004;2023-11-18T06:43:51;102155.06;;;10.97;61.70
71384;BME280;67558;52.166;5.004;2023-11-18T06:46:43;102151.44;;;10.92;61.48
71384;BME280;67558;52.166;5.004;2023-11-18T06:49:09;102150.75;;;10.96;61.64
71384;BME280;67558;52.166;5.004;2023-11-18T06:51:40;102152.97;;;10.99;61.63
71384;BME280;67558;52.166;5.004;2023-11-18T06:54:06;102150.75;;;10.96;61.58
71384;BME280;67558;52.166;5.004;2023-11-18T06:56:39;102156.09;;;10.96;61.67
71384;BME280;67558;52.166;5.004;2023-11-18T06:59:08;102161.81;;;11.00;61.52
71384;BME280;67558;52.166;5.004;2023-11-18T07:01:35;102144.69;;;11.01;61.44
71384;BME280;67558;52.166;5.004;2023-11-18T07:04:01;102143.88;;;11.00;61.43
71384;BME280;67558;52.166;5.004;2023-11-18T07:06:27;102146.78;;;10.99;61.54
71384;BME280;67558;52.166;5.004;2023-11-18T07:08:53;102150.03;;;11.01;61.39
71384;BME280;67558;52.166;5.004;2023-11-18T07:11:20;102159.34;;;10.98;61.60
71384;BME280;67558;52.166;5.004;2023-11-18T07:13:47;102160.28;;;10.92;61.69
71384;BME280;67558;52.166;5.004;2023-11-18T07:16:13;102164.94;;;10.97;61.70
71384;BME280;67558;52.166;5.004;2023-11-18T07:18:40;102169.47;;;10.96;61.62
71384;BME280;67558;52.166;5.004;2023-11-18T07:21:05;102177.06;;;10.99;61.41
71384;BME280;67558;52.166;5.004;2023-11-18T07:23:31;102164.72;;;10.98;61.40
71384;BME280;67558;52.166;5.004;2023-11-18T07:25:57;102169.03;;;10.99;61.47
71384;BME280;67558;52.166;5.004;2023-11-18T07:28:23;102171.94;;;10.98;61.43
71384;BME280;67558;52.166;5.004;2023-11-18T07:30:49;102174.84;;;10.96;61.50
71384;BME280;67558;52.166;5.004;2023-11-18T07:33:15;102179.59;;;10.94;61.64
71384;BME280;67558;52.166;5.004;2023-11-18T07:35:41;102174.72;;;10.91;61.62
71384;BME280;67558;52.166;5.004;2023-11-18T07:38:07;102178.22;;;10.92;61.49
71384;BME280;67558;52.166;5.004;2023-11-18T07:40:33;102172.50;;;10.88;61.59
71384;BME280;67558;52.166;5.004;2023-11-18T07:42:59;102169.81;;;10.88;61.83
71384;BME280;67558;52.166;5.004;2023-11-18T07:45:27;102170.88;;;10.87;61.92
71384;BME280;67558;52.166;5.004;2023-11-18T07:47:54;102165.06;;;10.90;61.80
71384;BME280;67558;52.166;5.004;2023-11-18T07:50:20;102164.03;;;10.91;61.79
71384;BME280;67558;52.166;5.004;2023-11-18T07:52:47;102164.59;;;10.93;61.67
71384;BME280;67558;52.166;5.004;2023-11-18T07:55:14;102160.28;;;10.92;61.70
71384;BME280;67558;52.166;5.004;2023-11-18T07:57:40;102158.19;;;10.94;61.62
71384;BME280;67558;52.166;5.004;2023-11-18T08:00:06;102157.38;;;10.94;61.73
71384;BME280;67558;52.166;5.004;2023-11-18T08:02:37;102159.25;;;10.93;61.76
71384;BME280;67558;52.166;5.004;2023-11-18T08:05:06;102151.94;;;10.89;61.90
71384;BME280;67558;52.166;5.004;2023-11-18T08:07:38;102149.25;;;10.89;61.88
71384;BME280;67558;52.166;5.004;2023-11-18T08:10:04;102144.13;;;10.87;62.06
71384;BME280;67558;52.166;5.004;2023-11-18T08:12:32;102135.50;;;10.85;61.95
71384;BME280;67558;52.166;5.004;2023-11-18T08:14:59;102116.78;;;10.85;61.95
71384;BME280;67558;52.166;5.004;2023-11-18T08:17:25;102116.78;;;10.85;62.08
71384;BME280;67558;52.166;5.004;2023-11-18T08:19:54;102130.06;;;10.80;62.16
71384;BME280;67558;52.166;5.004;2023-11-18T08:22:21;102130.25;;;10.90;62.11
71384;BME280;67558;52.166;5.004;2023-11-18T08:24:48;102111.66;;;10.83;62.12
71384;BME280;67558;52.166;5.004;2023-11-18T08:27:14;102117.00;;;10.95;61.87
71384;BME280;67558;52.166;5.004;2023-11-18T08:29:39;102114.53;;;10.94;62.35
71384;BME280;67558;52.166;5.004;2023-11-18T08:32:06;102105.34;;;10.90;62.24
71384;BME280;67558;52.166;5.004;2023-11-18T08:34:37;102103.84;;;10.94;62.31
71384;BME280;67558;52.166;5.004;2023-11-18T08:37:06;102097.78;;;10.98;62.33
71384;BME280;67558;52.166;5.004;2023-11-18T08:39:31;102092.41;;;10.98;62.30
71384;BME280;67558;52.166;5.004;2023-11-18T08:41:57;102091.84;;;10.96;62.31
71384;BME280;67558;52.166;5.004;2023-11-18T08:44:22;102084.38;;;10.98;62.34
71384;BME280;67558;52.166;5.004;2023-11-18T08:46:52;102077.72;;;11.01;62.30
71384;BME280;67558;52.166;5.004;2023-11-18T08:49:20;102068.31;;;10.98;62.48
71384;BME280;67558;52.166;5.004;2023-11-18T08:51:50;102066.78;;;11.02;62.14
71384;BME280;67558;52.166;5.004;2023-11-18T08:54:24;102055.16;;;10.97;62.31
71384;BME280;67558;52.166;5.004;2023-11-18T08:56:54;102048.63;;;11.04;62.18
71384;BME280;67558;52.166;5.004;2023-11-18T08:59:23;102052.91;;;11.05;62.34
71384;BME280;67558;52.166;5.004;2023-11-18T09:01:53;102050.59;;;11.09;62.05
71384;BME280;67558;52.166;5.004;2023-11-18T09:04:25;102038.94;;;11.15;62.04
71384;BME280;67558;52.166;5.004;2023-11-18T09:06:53;102028.44;;;11.14;62.18
71384;BME280;67558;52.166;5.004;2023-11-18T09:09:20;102045.66;;;11.18;62.05
71384;BME280;67558;52.166;5.004;2023-11-18T09:11:55;102047.47;;;11.12;62.43
71384;BME280;67558;52.166;5.004;2023-11-18T09:14:26;102047.31;;;11.19;62.20
71384;BME280;67558;52.166;5.004;2023-11-18T09:16:52;102036.75;;;11.12;62.24
71384;BME280;67558;52.166;5.004;2023-11-18T09:19:20;102020.19;;;11.15;62.37
71384;BME280;67558;52.166;5.004;2023-11-18T09:21:46;102009.56;;;11.20;62.14
71384;BME280;67558;52.166;5.004;2023-11-18T09:24:12;101997.56;;;11.23;62.08
71384;BME280;67558;52.166;5.004;2023-11-18T09:26:39;101987.44;;;11.25;62.24
71384;BME280;67558;52.166;5.004;2023-11-18T09:29:05;101978.81;;;11.23;62.33
71384;BME280;67558;52.166;5.004;2023-11-18T09:31:36;101972.97;;;11.26;62.28
71384;BME280;67558;52.166;5.004;2023-11-18T09:34:02;101969.53;;;11.14;62.96
71384;BME280;67558;52.166;5.004;2023-11-18T09:36:32;101965.75;;;11.26;62.29
71384;BME280;67558;52.166;5.004;2023-11-18T09:38:59;101969.22;;;11.27;62.36
71384;BME280;67558;52.166;5.004;2023-11-18T09:41:24;101964.44;;;11.29;62.54
71384;BME280;67558;52.166;5.004;2023-11-18T09:43:52;101970.38;;;11.31;62.44
71384;BME280;67558;52.166;5.004;2023-11-18T09:46:28;101967.97;;;11.30;62.97
71384;BME280;67558;52.166;5.004;2023-11-18T09:52:05;101977.94;;;11.34;62.69
71384;BME280;67558;52.166;5.004;2023-11-18T09:54:39;101979.31;;;11.37;62.89
71384;BME280;67558;52.166;5.004;2023-11-18T09:57:19;101980.94;;;11.38;63.14
71384;BME280;67558;52.166;5.004;2023-11-18T10:00:00;101974.31;;;11.40;63.21
71384;BME280;67558;52.166;5.004;2023-11-18T10:02:39;101955.13;;;11.48;62.78
71384;BME280;67558;52.166;5.004;2023-11-18T10:05:06;101961.47;;;11.42;63.13
71384;BME280;67558;52.166;5.004;2023-11-18T10:07:41;101963.25;;;11.54;62.80
71384;BME280;67558;52.166;5.004;2023-11-18T10:10:08;101958.25;;;11.57;62.73
71384;BME280;67558;52.166;5.004;2023-11-18T10:12:44;101966.75;;;11.54;63.02
71384;BME280;67558;52.166;5.004;2023-11-18T10:15:13;101964.72;;;11.61;62.96
71384;BME280;67558;52.166;5.004;2023-11-18T10:17:43;101961.56;;;11.64;63.08
71384;BME280;67558;52.166;5.004;2023-11-18T10:20:45;101971.53;;;11.69;62.93
71384;BME280;67558;52.166;5.004;2023-11-18T10:23:13;101972.03;;;11.66;62.90
71384;BME280;67558;52.166;5.004;2023-11-18T10:25:47;101972.03;;;11.66;63.07
71384;BME280;67558;52.166;5.004;2023-11-18T10:30:49;101935.97;;;11.74;63.10
71384;BME280;67558;52.166;5.004;2023-11-18T10:33:17;101929.00;;;11.73;63.36
71384;BME280;67558;52.166;5.004;2023-11-18T10:35:52;101911.59;;;11.75;63.29
71384;BME280;67558;52.166;5.004;2023-11-18T10:38:21;101908.97;;;11.80;62.91
71384;BME280;67558;52.166;5.004;2023-11-18T10:40:53;101908.97;;;11.80;62.99
71384;BME280;67558;52.166;5.004;2023-11-18T10:43:23;101895.66;;;11.85;63.00
71384;BME280;67558;52.166;5.004;2023-11-18T10:46:09;101892.91;;;11.80;63.26
71384;BME280;67558;52.166;5.004;2023-11-18T10:48:42;101892.91;;;11.80;63.25
71384;BME280;67558;52.166;5.004;2023-11-18T10:51:09;101888.66;;;11.84;63.20
71384;BME280;67558;52.166;5.004;2023-11-18T10:53:36;101888.66;;;11.84;63.22
71384;BME280;67558;52.166;5.004;2023-11-18T10:56:06;101896.22;;;11.87;63.09
71384;BME280;67558;52.166;5.004;2023-11-18T10:58:41;101894.44;;;11.93;63.16
71384;BME280;67558;52.166;5.004;2023-11-18T11:01:07;101895.00;;;11.95;62.92
71384;BME280;67558;52.166;5.004;2023-11-18T11:03:52;101883.47;;;11.95;63.27
71384;BME280;67558;52.166;5.004;2023-11-18T11:06:19;101864.94;;;11.93;63.20
71384;BME280;67558;52.166;5.004;2023-11-18T11:08:49;101843.50;;;11.93;63.14
71384;BME280;67558;52.166;5.004;2023-11-18T11:11:15;101843.50;;;11.93;63.25
71384;BME280;67558;52.166;5.004;2023-11-18T11:13:45;101812.78;;;11.84;63.69
71384;BME280;67558;52.166;5.004;2023-11-18T11:16:18;101776.31;;;11.83;63.85
71384;BME280;67558;52.166;5.004;2023-11-18T11:18:47;101740.38;;;11.79;64.09
71384;BME280;67558;52.166;5.004;2023-11-18T11:21:20;101737.19;;;11.82;63.98
71384;BME280;67558;52.166;5.004;2023-11-18T11:26:39;101750.47;;;11.94;63.77
71384;BME280;67558;52.166;5.004;2023-11-18T11:31:49;101760.69;;;11.97;63.91
71384;BME280;67558;52.166;5.004;2023-11-18T11:34:18;101750.72;;;11.92;64.05
71384;BME280;67558;52.166;5.004;2023-11-18T11:36:50;101743.59;;;11.81;64.86
71384;BME280;67558;52.166;5.004;2023-11-18T11:39:18;101737.06;;;11.94;64.08
71384;BME280;67558;52.166;5.004;2023-11-18T11:41:51;101715.69;;;11.99;64.23
71384;BME280;67558;52.166;5.004;2023-11-18T11:44:17;101695.53;;;11.96;64.38
71384;BME280;67558;52.166;5.004;2023-11-18T11:46:46;101686.75;;;12.01;64.61
71384;BME280;67558;52.166;5.004;2023-11-18T11:49:19;101673.56;;;11.99;64.46
71384;BME280;67558;52.166;5.004;2023-11-18T11:52:10;101659.13;;;12.00;64.91
71384;BME280;67558;52.166;5.004;2023-11-18T11:54:52;101655.00;;;11.93;65.14
71384;BME280;67558;52.166;5.004;2023-11-18T11:57:22;101654.25;;;11.97;65.24
71384;BME280;67558;52.166;5.004;2023-11-18T12:02:19;101626.38;;;11.98;65.10
71384;BME280;67558;52.166;5.004;2023-11-18T12:04:49;101633.56;;;11.93;65.46
71384;BME280;67558;52.166;5.004;2023-11-18T12:07:19;101635.59;;;12.07;64.97
71384;BME280;67558;52.166;5.004;2023-11-18T12:09:49;101640.91;;;12.02;65.30
71384;BME280;67558;52.166;5.004;2023-11-18T12:12:21;101640.41;;;12.11;65.20
71384;BME280;67558;52.166;5.004;2023-11-18T12:17:25;101618.97;;;12.11;65.08
71384;BME280;67558;52.166;5.004;2023-11-18T12:19:56;101610.69;;;12.17;64.88
71384;BME280;67558;52.166;5.004;2023-11-18T12:22:24;101612.91;;;12.20;64.90
71384;BME280;67558;52.166;5.004;2023-11-18T12:32:59;101574.47;;;12.09;65.53
71384;BME280;67558;52.166;5.004;2023-11-18T12:40:55;101527.28;;;12.14;65.29
71384;BME280;67558;52.166;5.004;2023-11-18T12:49:29;101463.97;;;12.07;65.79
71384;BME280;67558;52.166;5.004;2023-11-18T12:51:55;101479.50;;;12.11;65.86
71384;BME280;67558;52.166;5.004;2023-11-18T12:54:25;101457.81;;;12.12;65.52
71384;BME280;67558;52.166;5.004;2023-11-18T12:56:57;101463.09;;;12.02;66.20
71384;BME280;67558;52.166;5.004;2023-11-18T12:59:22;101454.31;;;12.12;65.78
71384;BME280;67558;52.166;5.004;2023-11-18T13:01:48;101480.38;;;12.21;65.33
71384;BME280;67558;52.166;5.004;2023-11-18T13:04:18;101480.69;;;12.25;65.53
71384;BME280;67558;52.166;5.004;2023-11-18T13:06:48;101493.78;;;12.16;65.89
71384;BME280;67558;52.166;5.004;2023-11-18T13:09:14;101489.75;;;12.19;65.58
71384;BME280;67558;52.166;5.004;2023-11-18T13:11:55;101482.56;;;12.29;65.53
71384;BME280;67558;52.166;5.004;2023-11-18T13:14:27;101459.75;;;12.22;66.21
71384;BME280;67558;52.166;5.004;2023-11-18T13:16:54;101462.16;;;12.23;65.89
71384;BME280;67558;52.166;5.004;2023-11-18T13:19:26;101449.84;;;12.27;66.06
71384;BME280;67558;52.166;5.004;2023-11-18T13:22:06;101444.22;;;12.29;65.84
71384;BME280;67558;52.166;5.004;2023-11-18T13:24:36;101432.09;;;12.21;66.21
71384;BME280;67558;52.166;5.004;2023-11-18T13:27:02;101436.47;;;12.33;65.72
71384;BME280;67558;52.166;5.004;2023-11-18T13:29:32;101415.25;;;12.31;65.99
71384;BME280;67558;52.166;5.004;2023-11-18T13:31:59;101416.88;;;12.32;65.95